Time;durP1;ratioP1;P1;durP2;ratioP2;P2;SDS_P1;SDS_P2;PMS_P1;PMS_P2;Temp;Humidity;BMP_temperature;BMP_pressure;BME280_temperature;BME280_humidity;BME280_pressure;Samples;Min_cycle;Max_cycle;Signal;HPM_P1;HPM_P2
2021/08/11 00:01:32;;;;;;;3.45;2.52;;;;;;;17.89;74.64;96680.96;1730059;80;20971;-83
2021/08/11 00:03:58;;;;;;;4.72;2.80;;;;;;;17.85;74.47;96687.69;1745858;81;20978;-83
2021/08/11 00:06:24;;;;;;;3.15;2.15;;;;;;;17.83;74.54;96697.11;1749414;80;21011;-83
2021/08/11 00:08:50;;;;;;;3.00;2.25;;;;;;;17.82;74.83;96696.02;1746448;80;21138;-83
2021/08/11 00:11:16;;;;;;;4.78;2.83;;;;;;;17.80;74.91;96700.19;1747674;80;21369;-82
2021/08/11 00:13:42;;;;;;;3.05;2.20;;;;;;;17.77;75.10;96699.31;1746624;80;20968;-83
2021/08/11 00:16:07;;;;;;;3.85;2.40;;;;;;;17.74;75.06;96690.55;1745418;81;21003;-83
2021/08/11 00:18:33;;;;;;;3.95;2.10;;;;;;;17.75;75.13;96680.33;1749681;81;20935;-82
2021/08/11 00:20:59;;;;;;;2.98;2.17;;;;;;;17.73;75.12;96675.78;1712276;82;20998;-83
2021/08/11 00:23:25;;;;;;;2.65;2.08;;;;;;;17.71;74.77;96677.83;1712475;82;20943;-82
2021/08/11 00:25:54;;;;;;;2.95;2.22;;;;;;;17.68;74.60;96683.02;1750266;81;21385;-83
2021/08/11 00:28:21;;;;;;;2.85;2.00;;;;;;;17.65;74.57;96677.37;1741670;81;21498;-83
2021/08/11 00:30:48;;;;;;;3.22;2.17;;;;;;;17.64;74.52;96681.02;1748358;81;21039;-82
2021/08/11 00:33:13;;;;;;;2.50;1.90;;;;;;;17.62;74.66;96677.30;1719374;81;21346;-82
2021/08/11 00:35:39;;;;;;;2.85;1.92;;;;;;;17.61;74.93;96678.84;1741524;81;20948;-82
2021/08/11 00:38:05;;;;;;;2.33;1.60;;;;;;;17.58;74.80;96677.45;1700075;83;21027;-83
2021/08/11 00:40:31;;;;;;;4.17;2.10;;;;;;;17.54;75.09;96674.95;1742902;80;21362;-83
2021/08/11 00:42:57;;;;;;;3.55;1.87;;;;;;;17.47;75.35;96667.66;1712317;81;20971;-83
2021/08/11 00:45:23;;;;;;;3.67;1.70;;;;;;;17.46;75.48;96674.45;1745524;81;20927;-83
2021/08/11 00:47:52;;;;;;;2.70;1.70;;;;;;;17.44;75.35;96672.55;1738083;81;20952;-83
2021/08/11 00:50:18;;;;;;;2.08;1.45;;;;;;;17.42;75.20;96663.58;1736318;81;20913;-83
2021/08/11 00:52:44;;;;;;;3.20;1.80;;;;;;;17.37;74.98;96665.52;1713826;81;20913;-83
2021/08/11 00:55:10;;;;;;;2.75;1.90;;;;;;;17.32;75.02;96665.38;1744127;81;21370;-83
2021/08/11 00:57:36;;;;;;;2.42;2.00;;;;;;;17.27;74.67;96660.49;1749826;81;20976;-83
2021/08/11 01:00:02;;;;;;;3.90;2.40;;;;;;;17.20;74.55;96655.28;1743588;80;21413;-82
2021/08/11 01:02:28;;;;;;;3.22;2.10;;;;;;;17.17;74.78;96651.78;1737097;81;20991;-82
2021/08/11 01:04:58;;;;;;;3.92;2.20;;;;;;;17.14;74.96;96654.05;1740385;81;20986;-82
2021/08/11 01:07:25;;;;;;;3.77;2.35;;;;;;;17.14;74.99;96662.72;1679566;81;21003;-83
2021/08/11 01:09:50;;;;;;;4.28;2.50;;;;;;;17.13;75.11;96662.43;1735107;81;21030;-82
2021/08/11 01:12:16;;;;;;;2.95;2.58;;;;;;;17.14;75.21;96665.34;1738229;80;20948;-82
2021/08/11 01:14:42;;;;;;;3.90;1.98;;;;;;;17.15;75.15;96668.78;1731218;81;20941;-82
2021/08/11 01:17:08;;;;;;;3.15;2.05;;;;;;;17.14;75.26;96664.03;1733891;80;20951;-82
2021/08/11 01:19:33;;;;;;;4.00;2.30;;;;;;;17.13;75.27;96667.69;1735340;81;21276;-83
2021/08/11 01:22:15;;;;;;;2.75;2.20;;;;;;;17.10;75.34;96660.24;1734781;81;20992;-82
2021/08/11 01:25:20;;;;;;;3.27;2.27;;;;;;;17.16;75.41;96665.13;1740811;81;21300;-82
2021/08/11 01:28:09;;;;;;;3.10;2.10;;;;;;;17.15;75.44;96657.77;1715572;81;20968;-83
2021/08/11 01:31:14;;;;;;;2.58;1.80;;;;;;;17.13;75.50;96655.06;1741031;81;21070;-83
2021/08/11 01:34:04;;;;;;;3.22;2.08;;;;;;;17.09;75.30;96651.56;1741802;81;21366;-83
2021/08/11 01:36:47;;;;;;;3.40;2.40;;;;;;;17.02;75.45;96647.37;1743040;81;21390;-83
2021/08/11 01:39:27;;;;;;;3.72;2.10;;;;;;;17.05;75.50;96650.88;1746469;81;20991;-82
2021/08/11 01:41:58;;;;;;;4.35;2.12;;;;;;;17.02;75.64;96652.63;1749419;81;20945;-83
2021/08/11 01:44:26;;;;;;;3.35;2.12;;;;;;;17.00;75.75;96658.61;1748103;81;21015;-82
2021/08/11 01:46:52;;;;;;;5.05;2.08;;;;;;;16.97;75.88;96648.54;1722237;81;21000;-83
2021/08/11 01:49:17;;;;;;;3.08;1.75;;;;;;;16.99;75.81;96664.88;1738826;80;20944;-83
2021/08/11 01:51:46;;;;;;;4.15;2.30;;;;;;;16.99;75.69;96669.61;1741189;81;20987;-83
2021/08/11 01:54:12;;;;;;;3.60;2.22;;;;;;;16.97;75.77;96672.16;1747559;81;20986;-82
2021/08/11 01:56:41;;;;;;;3.75;2.72;;;;;;;16.93;75.86;96670.48;1741793;80;21039;-82
2021/08/11 01:59:07;;;;;;;3.37;2.33;;;;;;;16.89;76.00;96665.34;1740623;81;20993;-82
2021/08/11 02:01:38;;;;;;;2.85;2.40;;;;;;;16.85;76.21;96664.17;1738904;81;21032;-82
2021/08/11 02:04:06;;;;;;;2.95;2.27;;;;;;;16.85;76.27;96667.31;1735375;81;21123;-82
2021/08/11 02:06:33;;;;;;;3.15;2.22;;;;;;;16.84;76.33;96667.02;1731935;81;21445;-82
2021/08/11 02:08:59;;;;;;;3.62;2.80;;;;;;;16.84;76.60;96664.39;1744236;81;20991;-82
2021/08/11 02:11:24;;;;;;;3.25;2.40;;;;;;;16.85;76.54;96672.55;1737729;81;21408;-82
2021/08/11 02:13:50;;;;;;;3.25;2.30;;;;;;;16.83;76.56;96662.78;1738227;81;20939;-82
2021/08/11 02:16:19;;;;;;;4.55;2.40;;;;;;;16.80;76.82;96664.82;1743584;81;21350;-82
2021/08/11 02:18:45;;;;;;;5.15;2.77;;;;;;;16.83;77.07;96667.52;1736543;81;20932;-82
2021/08/11 02:21:11;;;;;;;3.65;2.42;;;;;;;16.83;76.93;96675.39;1736503;81;21241;-82
2021/08/11 02:23:36;;;;;;;5.45;2.90;;;;;;;16.85;77.01;96672.55;1733447;81;20987;-82
2021/08/11 02:26:45;;;;;;;3.85;2.40;;;;;;;16.84;77.01;96678.31;1742056;81;20964;-82
2021/08/11 02:29:43;;;;;;;3.80;2.27;;;;;;;16.84;77.03;96670.95;1745288;81;21029;-83
2021/08/11 02:32:29;;;;;;;4.08;2.67;;;;;;;16.82;76.99;96679.04;1733135;81;21041;-83
2021/08/11 02:35:16;;;;;;;2.92;2.45;;;;;;;16.79;77.03;96678.16;1720567;81;21384;-83
2021/08/11 02:37:53;;;;;;;4.70;2.62;;;;;;;16.78;77.07;96680.49;1735082;81;21000;-82
2021/08/11 02:41:04;;;;;;;4.03;2.40;;;;;;;16.78;76.96;96685.23;1741607;81;21056;-82
2021/08/11 02:43:58;;;;;;;3.10;2.17;;;;;;;16.78;76.93;96691.79;1717763;81;20999;-82
2021/08/11 02:46:25;;;;;;;6.40;3.12;;;;;;;16.75;77.05;96696.63;1738201;81;20917;-82
2021/08/11 02:49:02;;;;;;;6.83;2.70;;;;;;;16.69;77.21;96689.62;1737955;81;21011;-82
2021/08/11 02:51:30;;;;;;;2.58;2.12;;;;;;;16.66;77.41;96687.40;1737680;81;20961;-83
2021/08/11 02:54:01;;;;;;;3.47;2.80;;;;;;;16.64;77.57;96686.30;1735602;81;20944;-83
2021/08/11 02:56:27;;;;;;;4.35;2.52;;;;;;;16.63;77.57;96691.26;1745625;81;21350;-83
2021/08/11 02:58:53;;;;;;;3.25;2.47;;;;;;;16.60;77.71;96685.13;1729554;81;20980;-82
2021/08/11 03:01:19;;;;;;;3.02;2.42;;;;;;;16.59;77.79;96690.56;1744514;81;20949;-83
2021/08/11 03:03:45;;;;;;;4.03;2.83;;;;;;;16.57;77.91;96688.15;1719750;81;21016;-82
2021/08/11 03:06:11;;;;;;;4.42;2.70;;;;;;;16.52;78.02;96687.98;1741605;81;21450;-82
2021/08/11 03:08:37;;;;;;;3.42;2.70;;;;;;;16.51;78.05;96681.94;1733123;81;21047;-82
2021/08/11 03:11:02;;;;;;;5.28;2.52;;;;;;;16.49;78.05;96685.80;1746057;81;21050;-82
2021/08/11 03:13:28;;;;;;;5.00;2.72;;;;;;;16.50;78.10;96690.83;1740125;81;21314;-82
2021/08/11 03:15:54;;;;;;;5.28;2.67;;;;;;;16.49;78.21;96695.78;1741574;81;20995;-82
2021/08/11 03:18:19;;;;;;;3.87;2.85;;;;;;;16.48;78.32;96695.48;1742947;81;21401;-83
2021/08/11 03:20:45;;;;;;;3.08;2.35;;;;;;;16.48;78.47;96706.48;1739531;81;21316;-82
2021/08/11 03:23:13;;;;;;;4.25;2.58;;;;;;;16.46;78.56;96708.00;1752179;80;20987;-82
2021/08/11 03:25:42;;;;;;;4.87;2.90;;;;;;;16.47;78.65;96710.92;1701551;83;21381;-82
2021/08/11 03:28:09;;;;;;;4.35;2.62;;;;;;;16.47;78.71;96706.19;1737389;80;20995;-82
2021/08/11 03:30:36;;;;;;;4.83;3.10;;;;;;;16.41;78.69;96700.45;1748797;80;21046;-82
2021/08/11 03:33:05;;;;;;;4.97;2.83;;;;;;;16.45;78.82;96717.40;1750672;80;21393;-82
2021/08/11 03:35:31;;;;;;;5.70;3.00;;;;;;;16.45;79.00;96717.40;1748205;80;20983;-82
2021/08/11 03:37:57;;;;;;;4.08;3.00;;;;;;;16.45;79.16;96722.64;1747551;80;21354;-82
2021/08/11 03:40:22;;;;;;;5.40;2.87;;;;;;;16.44;79.42;96722.34;1749457;80;20901;-82
2021/08/11 03:42:49;;;;;;;4.70;3.05;;;;;;;16.44;79.57;96719.22;1717221;81;21025;-82
2021/08/11 03:45:14;;;;;;;4.25;2.90;;;;;;;16.43;79.61;96713.67;1714927;82;21334;-82
2021/08/11 03:47:43;;;;;;;4.53;3.35;;;;;;;16.44;79.78;96706.61;1714695;82;20936;-82
2021/08/11 03:50:14;;;;;;;7.67;3.37;;;;;;;16.45;79.85;96706.40;1712953;82;21312;-82
2021/08/11 03:52:39;;;;;;;3.67;3.00;;;;;;;16.47;79.83;96710.13;1715891;82;20956;-82
2021/08/11 03:55:06;;;;;;;4.62;3.25;;;;;;;16.49;79.99;96712.02;1716139;82;21016;-82
2021/08/11 03:57:32;;;;;;;5.05;3.40;;;;;;;16.50;80.09;96703.14;1719935;82;20991;-82
2021/08/11 03:59:58;;;;;;;4.12;3.40;;;;;;;16.50;79.96;96715.74;1725848;82;21394;-82
2021/08/11 04:02:23;;;;;;;5.12;3.05;;;;;;;16.52;80.01;96711.59;1693634;82;21058;-82
2021/08/11 04:04:49;;;;;;;5.08;2.90;;;;;;;16.51;79.98;96716.55;1717075;82;20922;-82
2021/08/11 04:07:15;;;;;;;5.37;3.20;;;;;;;16.53;80.08;96709.77;1722359;82;21334;-82
2021/08/11 04:09:40;;;;;;;4.72;2.92;;;;;;;16.48;80.12;96707.28;1718342;82;21077;-82
2021/08/11 04:12:07;;;;;;;5.42;3.62;;;;;;;16.50;80.27;96713.63;1713855;82;21126;-82
2021/08/11 04:14:33;;;;;;;5.60;3.67;;;;;;;16.48;80.36;96709.11;1699631;82;21401;-82
2021/08/11 04:16:58;;;;;;;3.70;3.15;;;;;;;16.47;80.53;96712.74;1714863;82;20975;-82
2021/08/11 04:19:24;;;;;;;4.80;3.05;;;;;;;16.47;80.57;96712.23;1718184;82;21019;-82
2021/08/11 04:21:50;;;;;;;4.72;3.37;;;;;;;16.49;80.68;96714.14;1718224;82;21022;-82
2021/08/11 04:24:16;;;;;;;6.12;2.80;;;;;;;16.54;80.61;96711.38;1715618;82;21055;-82
2021/08/11 04:26:41;;;;;;;5.83;3.47;;;;;;;16.58;80.72;96714.67;1716054;82;21054;-82
2021/08/11 04:29:07;;;;;;;6.10;3.22;;;;;;;16.60;80.64;96717.11;1722600;81;21072;-82
2021/08/11 04:31:33;;;;;;;4.85;3.40;;;;;;;16.58;80.72;96720.43;1724903;81;21616;-82
2021/08/11 04:33:58;;;;;;;5.22;3.02;;;;;;;16.57;80.84;96714.89;1725580;81;21331;-82
2021/08/11 04:36:24;;;;;;;3.72;2.67;;;;;;;16.58;80.85;96721.74;1715078;82;20969;-82
2021/08/11 04:38:50;;;;;;;5.03;3.08;;;;;;;16.62;80.99;96721.64;1748376;81;21066;-83
2021/08/11 04:41:16;;;;;;;4.30;3.17;;;;;;;16.66;81.04;96728.06;1754400;81;20982;-82
2021/08/11 04:43:42;;;;;;;4.97;3.33;;;;;;;16.66;81.09;96734.12;1718425;81;20967;-82
2021/08/11 04:46:08;;;;;;;4.20;3.25;;;;;;;16.67;81.07;96736.27;1754721;80;21355;-83
2021/08/11 04:48:34;;;;;;;4.25;3.02;;;;;;;16.67;81.13;96739.69;1751695;80;20909;-82
2021/08/11 04:50:59;;;;;;;4.92;3.30;;;;;;;16.69;81.27;96736.34;1749214;81;20980;-83
2021/08/11 04:53:25;;;;;;;7.33;3.27;;;;;;;16.70;81.18;96743.70;1750362;80;20925;-82
2021/08/11 04:55:51;;;;;;;5.87;3.10;;;;;;;16.74;81.18;96748.82;1742440;81;21018;-82
2021/08/11 04:58:17;;;;;;;5.47;3.20;;;;;;;16.78;81.16;96756.59;1751829;81;20975;-82
2021/08/11 05:00:42;;;;;;;5.55;3.30;;;;;;;16.82;81.14;96755.66;1745115;80;21370;-83
2021/08/11 05:03:08;;;;;;;5.33;3.35;;;;;;;16.86;81.29;96755.52;1754431;81;20982;-82
2021/08/11 05:05:34;;;;;;;4.17;3.15;;;;;;;16.88;81.29;96758.22;1733963;81;20976;-82
2021/08/11 05:08:00;;;;;;;4.42;2.90;;;;;;;16.89;81.32;96757.20;1707052;82;20922;-82
2021/08/11 05:10:26;;;;;;;6.00;3.10;;;;;;;16.91;81.49;96763.05;1709722;82;21027;-82
2021/08/11 05:12:52;;;;;;;5.78;3.37;;;;;;;16.92;81.64;96758.59;1729987;80;21163;-82
2021/08/11 05:15:18;;;;;;;5.00;2.92;;;;;;;16.93;81.63;96756.30;1722222;80;21382;-82
2021/08/11 05:17:44;;;;;;;4.75;2.47;;;;;;;16.98;81.69;96763.02;1730308;80;20952;-82
2021/08/11 05:20:14;;;;;;;3.37;2.77;;;;;;;17.02;81.68;96762.88;1730937;80;20952;-82
2021/08/11 05:22:40;;;;;;;5.62;3.20;;;;;;;17.06;81.57;96769.30;1718006;81;20986;-83
2021/08/11 05:25:07;;;;;;;3.35;2.70;;;;;;;17.08;81.63;96767.27;1705856;81;21013;-82
2021/08/11 05:27:32;;;;;;;4.03;3.10;;;;;;;17.09;81.82;96774.16;1739987;80;20965;-82
2021/08/11 05:29:59;;;;;;;6.83;3.22;;;;;;;17.10;81.93;96767.89;1708276;82;20963;-82
2021/08/11 05:32:24;;;;;;;6.20;3.02;;;;;;;17.14;82.01;96763.01;1734633;80;21378;-83
2021/08/11 05:34:50;;;;;;;3.83;2.95;;;;;;;17.19;81.96;96769.72;1709911;82;20923;-82
2021/08/11 05:37:16;;;;;;;3.47;2.83;;;;;;;17.23;82.11;96762.52;1736218;80;20965;-82
2021/08/11 05:39:42;;;;;;;8.00;2.67;;;;;;;17.28;82.06;96765.32;1688990;83;21346;-83
2021/08/11 05:42:08;;;;;;;4.40;3.25;;;;;;;17.33;82.08;96762.05;1718259;82;21023;-82
2021/08/11 05:44:34;;;;;;;5.75;3.20;;;;;;;17.36;82.08;96757.16;1724947;81;21013;-82
2021/08/11 05:47:04;;;;;;;4.05;2.80;;;;;;;17.42;82.13;96758.14;1728795;81;21289;-82
2021/08/11 05:49:30;;;;;;;7.72;3.40;;;;;;;17.48;82.19;96763.03;1712493;82;21034;-82
2021/08/11 05:51:56;;;;;;;6.15;3.92;;;;;;;17.52;82.27;96767.63;1704843;82;22063;-82
2021/08/11 05:54:22;;;;;;;6.28;4.90;;;;;;;17.59;82.13;96766.28;1729985;81;21004;-82
2021/08/11 05:56:48;;;;;;;5.10;3.42;;;;;;;17.62;81.42;96764.52;1739236;81;21019;-82
2021/08/11 05:59:13;;;;;;;5.95;3.50;;;;;;;17.64;81.79;96763.80;1733692;80;21393;-81
2021/08/11 06:01:39;;;;;;;8.88;4.42;;;;;;;17.64;81.51;96761.16;1729326;80;20979;-82
2021/08/11 06:04:05;;;;;;;7.17;4.72;;;;;;;17.67;81.58;96763.36;1731352;81;21014;-82
2021/08/11 06:06:31;;;;;;;6.53;4.95;;;;;;;17.68;81.21;96755.80;1729449;81;21386;-82
2021/08/11 06:08:56;;;;;;;9.03;5.60;;;;;;;17.70;80.88;96756.38;1739117;82;20913;-82
2021/08/11 06:11:22;;;;;;;10.05;5.28;;;;;;;17.72;80.60;96754.84;1732914;80;20909;-82
2021/08/11 06:13:48;;;;;;;7.42;4.55;;;;;;;17.81;80.98;96754.35;1734616;80;21323;-82
2021/08/11 06:16:14;;;;;;;6.92;4.20;;;;;;;17.85;80.56;96758.14;1731329;80;20897;-82
2021/08/11 06:18:39;;;;;;;5.95;4.33;;;;;;;17.87;81.10;96759.23;1742360;80;20916;-82
2021/08/11 06:21:05;;;;;;;6.90;4.37;;;;;;;17.90;80.85;96757.52;1739525;80;21314;-82
2021/08/11 06:23:31;;;;;;;6.90;4.78;;;;;;;17.97;80.89;96755.61;1731518;81;20948;-82
2021/08/11 06:25:56;;;;;;;5.85;4.03;;;;;;;18.04;80.45;96761.58;1732705;80;20944;-82
2021/08/11 06:28:22;;;;;;;8.68;5.62;;;;;;;18.10;79.93;96758.09;1735586;81;21374;-82
2021/08/11 06:30:48;;;;;;;6.25;4.90;;;;;;;18.14;79.42;96757.94;1705535;81;20937;-82
2021/08/11 06:33:14;;;;;;;6.90;5.67;;;;;;;18.16;79.55;96762.98;1728687;81;21032;-82
2021/08/11 06:35:40;;;;;;;8.75;4.67;;;;;;;18.19;79.22;96761.22;1737945;81;20981;-83
2021/08/11 06:38:05;;;;;;;6.28;4.33;;;;;;;18.26;79.30;96763.27;1731834;81;21373;-82
2021/08/11 06:40:36;;;;;;;6.03;3.00;;;;;;;18.32;79.17;96758.44;1726570;81;20960;-82
2021/08/11 06:43:02;;;;;;;6.70;3.70;;;;;;;18.38;79.25;96756.73;1717217;81;20992;-82
2021/08/11 06:45:29;;;;;;;5.83;3.55;;;;;;;18.45;79.67;96761.42;1732940;81;21047;-81
2021/08/11 06:47:54;;;;;;;4.15;3.02;;;;;;;18.50;79.67;96758.91;1722537;81;20965;-81
2021/08/11 06:50:20;;;;;;;6.97;3.92;;;;;;;18.54;79.77;96761.38;1730533;82;21004;-81
2021/08/11 06:52:46;;;;;;;8.65;4.12;;;;;;;18.58;78.85;96764.69;1729991;82;21335;-81
2021/08/11 06:55:14;;;;;;;7.70;4.62;;;;;;;18.60;78.52;96767.09;1735674;81;20972;-81
2021/08/11 06:57:46;;;;;;;8.43;4.30;;;;;;;18.62;78.17;96765.04;1735507;81;21478;-81
2021/08/11 07:00:08;;;;;;;8.10;5.05;;;;;;;18.66;78.46;96772.80;1721597;82;20972;-81
2021/08/11 07:02:34;;;;;;;8.93;5.53;;;;;;;18.62;77.77;96776.87;1718900;82;21539;-82
2021/08/11 07:05:00;;;;;;;10.25;6.92;;;;;;;18.65;77.46;96778.30;1712969;82;20990;-82
2021/08/11 07:07:25;;;;;;;12.00;8.45;;;;;;;18.69;77.06;96786.83;1701645;82;20944;-82
2021/08/11 07:09:54;;;;;;;8.60;6.37;;;;;;;18.77;77.02;96779.14;1720340;81;21007;-82
2021/08/11 07:12:19;;;;;;;11.65;7.75;;;;;;;18.85;76.73;96782.77;1709037;82;20953;-81
2021/08/11 07:14:47;;;;;;;9.53;6.83;;;;;;;18.93;76.70;96776.40;1724272;81;21347;-82
2021/08/11 07:17:13;;;;;;;7.53;5.85;;;;;;;18.96;76.41;96782.01;1726284;81;20996;-82
2021/08/11 07:19:39;;;;;;;9.63;6.20;;;;;;;19.01;76.45;96781.33;1727296;81;21360;-82
2021/08/11 07:22:06;;;;;;;9.35;6.83;;;;;;;19.08;76.33;96783.37;1732245;81;21013;-81
2021/08/11 07:24:32;;;;;;;8.65;6.85;;;;;;;19.17;75.86;96787.27;1738235;81;20981;-82
2021/08/11 07:26:59;;;;;;;9.08;6.53;;;;;;;19.24;75.57;96789.81;1737821;80;20991;-82
2021/08/11 07:29:25;;;;;;;6.78;3.92;;;;;;;19.30;76.01;96790.22;1741400;80;21372;-82
2021/08/11 07:31:51;;;;;;;10.48;5.42;;;;;;;19.33;76.75;96787.13;1749233;80;21021;-82
2021/08/11 07:34:17;;;;;;;6.45;4.25;;;;;;;19.32;75.99;96792.91;1736101;80;21313;-81
2021/08/11 07:36:43;;;;;;;8.08;5.33;;;;;;;19.39;76.21;96790.19;1749326;80;21004;-82
2021/08/11 07:39:09;;;;;;;10.30;5.78;;;;;;;19.42;75.26;96791.05;1749360;80;21024;-81
2021/08/11 07:41:35;;;;;;;6.40;4.60;;;;;;;19.44;75.27;96786.34;1754657;80;21002;-81
2021/08/11 07:44:01;;;;;;;7.62;4.62;;;;;;;19.53;75.96;96789.47;1733843;80;20977;-82
2021/08/11 07:46:26;;;;;;;6.08;4.47;;;;;;;19.58;75.81;96784.33;1733258;80;21047;-82
2021/08/11 07:48:53;;;;;;;7.10;5.25;;;;;;;19.58;76.02;96794.36;1720577;82;21015;-82
2021/08/11 07:51:18;;;;;;;7.10;4.42;;;;;;;19.58;75.67;96785.65;1711949;82;20971;-81
2021/08/11 07:53:44;;;;;;;6.53;4.35;;;;;;;19.62;75.86;96791.55;1714681;82;21052;-81
2021/08/11 07:56:10;;;;;;;9.20;5.00;;;;;;;19.65;75.31;96802.95;1717076;81;21035;-82
2021/08/11 07:58:35;;;;;;;5.87;4.33;;;;;;;19.69;75.09;96792.77;1718488;81;21041;-81
2021/08/11 08:01:01;;;;;;;6.55;4.28;;;;;;;19.73;75.88;96791.27;1702218;83;21411;-82
2021/08/11 08:03:27;;;;;;;5.95;4.30;;;;;;;19.79;75.28;96799.58;1715899;81;21037;-81
2021/08/11 08:05:53;;;;;;;6.45;4.10;;;;;;;19.85;75.14;96796.52;1722382;81;20997;-81
2021/08/11 08:08:18;;;;;;;5.70;4.28;;;;;;;19.92;75.76;96798.03;1716990;81;20996;-81
2021/08/11 08:10:44;;;;;;;9.80;6.25;;;;;;;19.99;74.85;96801.33;1737135;81;20980;-82
2021/08/11 08:13:10;;;;;;;13.25;9.18;;;;;;;20.04;75.16;96798.83;1719009;81;21041;-82
2021/08/11 08:15:36;;;;;;;9.13;6.97;;;;;;;20.16;74.82;96797.98;1723421;81;21059;-82
2021/08/11 08:18:03;;;;;;;9.05;5.50;;;;;;;20.15;74.02;96798.51;1736511;80;21386;-82
2021/08/11 08:20:30;;;;;;;9.23;6.17;;;;;;;20.24;73.78;96797.13;1743268;80;20988;-82
2021/08/11 08:22:56;;;;;;;9.68;6.10;;;;;;;20.34;73.97;96797.34;1701684;83;20989;-82
2021/08/11 08:25:21;;;;;;;8.55;5.35;;;;;;;20.45;73.10;96791.77;1730626;80;21327;-82
2021/08/11 08:27:51;;;;;;;8.28;6.10;;;;;;;20.55;72.89;96791.17;1679591;82;20917;-82
2021/08/11 08:30:18;;;;;;;7.67;5.45;;;;;;;20.68;72.62;96793.55;1707362;82;20986;-82
2021/08/11 08:32:45;;;;;;;9.65;7.00;;;;;;;20.73;72.37;96790.99;1710347;82;21006;-82
2021/08/11 08:35:11;;;;;;;9.15;6.25;;;;;;;20.80;71.98;96796.92;1705263;82;21061;-82
2021/08/11 08:37:37;;;;;;;7.58;5.45;;;;;;;20.93;71.43;96801.92;1703651;82;20988;-82
2021/08/11 08:40:12;;;;;;;10.88;5.78;;;;;;;21.14;72.19;96803.08;1706344;82;20957;-82
2021/08/11 08:42:40;;;;;;;11.63;9.30;;;;;;;21.34;72.57;96811.92;1699535;82;21029;-82
2021/08/11 08:45:09;;;;;;;9.83;6.65;;;;;;;21.49;71.11;96808.20;1701264;82;22093;-82
2021/08/11 08:47:37;;;;;;;11.75;6.97;;;;;;;21.66;70.70;96807.40;1704550;82;20961;-82
2021/08/11 08:50:09;;;;;;;9.55;6.15;;;;;;;21.82;70.20;96807.91;1712238;82;21620;-82
2021/08/11 08:52:36;;;;;;;8.68;5.35;;;;;;;21.72;70.36;96809.87;1735566;81;21115;-82
2021/08/11 08:55:03;;;;;;;6.08;4.95;;;;;;;21.55;69.38;96818.33;1722635;81;21012;-82
2021/08/11 08:57:29;;;;;;;9.68;6.28;;;;;;;21.46;69.00;96817.91;1707546;82;20998;-82
2021/08/11 08:59:55;;;;;;;8.68;5.17;;;;;;;21.52;69.25;96815.65;1703944;82;20970;-82
2021/08/11 09:02:21;;;;;;;6.80;4.58;;;;;;;21.64;68.53;96805.48;1702648;82;21145;-82
2021/08/11 09:04:46;;;;;;;7.95;4.87;;;;;;;21.77;70.03;96802.00;1711241;82;21075;-82
2021/08/11 09:07:17;;;;;;;5.90;4.37;;;;;;;21.81;69.52;96806.31;1717044;82;21081;-82
2021/08/11 09:09:43;;;;;;;8.73;4.43;;;;;;;21.71;69.50;96797.69;1716943;83;20974;-82
2021/08/11 09:12:16;;;;;;;7.03;3.85;;;;;;;21.75;68.92;96796.16;1722784;81;20983;-82
2021/08/11 09:14:49;;;;;;;7.20;4.10;;;;;;;21.88;69.62;96797.14;1729457;81;20936;-82
2021/08/11 09:17:35;;;;;;;6.92;4.20;;;;;;;21.99;69.33;96795.45;1703720;82;20949;-82
2021/08/11 09:20:03;;;;;;;5.97;3.52;;;;;;;21.97;68.26;96800.72;1727126;82;21295;-83
2021/08/11 09:22:29;;;;;;;5.90;3.98;;;;;;;21.78;68.11;96802.80;1702593;83;21351;-83
2021/08/11 09:25:06;;;;;;;7.00;3.85;;;;;;;21.76;68.14;96803.56;1684916;81;21004;-82
2021/08/11 09:27:34;;;;;;;4.92;3.80;;;;;;;21.76;67.58;96807.02;1744648;81;21471;-82
2021/08/11 09:30:09;;;;;;;6.62;4.05;;;;;;;21.79;68.32;96807.84;1716182;82;21048;-82
2021/08/11 09:32:57;;;;;;;4.05;3.35;;;;;;;21.72;68.51;96809.07;1737169;80;20988;-83
2021/08/11 09:35:33;;;;;;;5.33;3.95;;;;;;;21.61;68.48;96812.59;1732810;81;20936;-83
2021/08/11 09:38:08;;;;;;;4.75;4.22;;;;;;;21.74;67.92;96808.30;1724368;82;21094;-82
2021/08/11 09:40:36;;;;;;;6.00;4.08;;;;;;;21.70;66.17;96809.84;1747511;80;20975;-82
2021/08/11 09:43:08;;;;;;;3.72;2.90;;;;;;;21.54;66.42;96815.41;1746431;81;20983;-82
2021/08/11 09:45:55;;;;;;;6.35;3.92;;;;;;;21.40;65.75;96815.44;1726258;80;21063;-82
2021/08/11 09:48:27;;;;;;;5.20;3.75;;;;;;;21.32;66.29;96814.00;1728667;80;20952;-82
2021/08/11 09:51:04;;;;;;;6.22;4.25;;;;;;;21.26;67.11;96811.77;1742133;80;20968;-82
2021/08/11 09:53:34;;;;;;;4.92;2.90;;;;;;;21.31;67.54;96818.18;1743052;82;21366;-85
2021/08/11 09:56:09;;;;;;;6.53;3.42;;;;;;;21.37;68.23;96821.20;1742440;80;20959;-82
2021/08/11 09:58:40;;;;;;;5.42;3.80;;;;;;;21.63;67.68;96813.14;1746893;81;21038;-83
2021/08/11 10:01:16;;;;;;;5.75;3.10;;;;;;;21.87;67.17;96811.94;1740462;81;20987;-83
2021/08/11 10:04:03;;;;;;;5.53;3.70;;;;;;;21.95;65.23;96815.48;1735959;80;21035;-82
2021/08/11 10:06:40;;;;;;;5.08;3.47;;;;;;;22.03;64.02;96819.05;1736887;81;20991;-83
2021/08/11 10:09:18;;;;;;;5.75;4.22;;;;;;;22.24;63.83;96811.41;1745277;81;20991;-83
2021/08/11 10:11:58;;;;;;;4.40;2.98;;;;;;;22.27;64.24;96804.30;1743869;80;21322;-83
2021/08/11 10:14:29;;;;;;;5.37;3.72;;;;;;;22.33;63.76;96813.40;1740595;80;20999;-83
2021/08/11 10:16:59;;;;;;;4.57;3.33;;;;;;;22.29;62.26;96815.44;1725595;82;20964;-83
2021/08/11 10:19:30;;;;;;;7.40;3.65;;;;;;;22.29;62.96;96816.27;1736486;81;20964;-83
2021/08/11 10:22:08;;;;;;;4.58;3.83;;;;;;;22.54;64.23;96815.77;1750762;80;21342;-83
2021/08/11 10:24:34;;;;;;;5.10;3.60;;;;;;;22.61;64.89;96814.23;1720475;81;21027;-83
2021/08/11 10:27:00;;;;;;;5.53;3.90;;;;;;;22.64;63.55;96819.06;1740128;80;20948;-83
2021/08/11 10:29:26;;;;;;;4.37;3.25;;;;;;;22.54;63.23;96818.41;1724889;82;20960;-82
2021/08/11 10:31:54;;;;;;;4.53;3.15;;;;;;;22.62;61.99;96817.99;1725850;81;20988;-82
2021/08/11 10:34:20;;;;;;;5.58;3.75;;;;;;;22.73;63.46;96826.84;1730254;81;21007;-82
2021/08/11 10:36:47;;;;;;;4.12;3.40;;;;;;;22.80;62.02;96818.19;1735205;81;21042;-82
2021/08/11 10:39:15;;;;;;;6.30;4.22;;;;;;;22.90;62.79;96820.16;1731402;81;21321;-83
2021/08/11 10:41:41;;;;;;;6.25;3.30;;;;;;;23.03;61.36;96818.45;1727528;81;21007;-83
2021/08/11 10:44:18;;;;;;;4.97;3.05;;;;;;;23.15;60.56;96816.98;1708329;82;20968;-83
2021/08/11 10:46:46;;;;;;;4.30;3.17;;;;;;;23.20;59.78;96813.84;1708235;83;22076;-83
2021/08/11 10:49:16;;;;;;;3.67;3.10;;;;;;;23.36;60.31;96808.15;1707682;82;20930;-83
2021/08/11 10:51:42;;;;;;;5.03;3.33;;;;;;;23.26;61.34;96814.15;1715678;82;20947;-82
2021/08/11 10:54:08;;;;;;;4.42;3.35;;;;;;;23.05;61.51;96815.02;1713019;83;20945;-83
2021/08/11 10:56:43;;;;;;;5.25;3.47;;;;;;;22.99;61.00;96813.38;1737643;82;21407;-83
2021/08/11 10:59:28;;;;;;;5.67;3.75;;;;;;;23.21;59.86;96810.66;1734937;81;20976;-83
2021/08/11 11:01:55;;;;;;;6.00;3.70;;;;;;;23.48;60.05;96813.30;1722827;81;21002;-83
2021/08/11 11:04:43;;;;;;;5.40;3.70;;;;;;;23.58;59.24;96803.58;1725962;81;21365;-83
2021/08/11 11:07:15;;;;;;;4.90;3.70;;;;;;;23.60;58.38;96811.31;1732407;82;20960;-82
2021/08/11 11:09:47;;;;;;;5.70;3.75;;;;;;;23.65;58.15;96800.20;1726480;81;21375;-82
2021/08/11 11:12:21;;;;;;;4.85;3.62;;;;;;;23.60;58.23;96802.82;1726437;81;20972;-82
2021/08/11 11:14:57;;;;;;;5.30;3.72;;;;;;;23.38;57.69;96801.27;1729386;81;20941;-82
2021/08/11 11:17:33;;;;;;;6.75;4.40;;;;;;;23.22;55.72;96813.06;1731440;82;20932;-82
2021/08/11 11:20:15;;;;;;;5.37;4.20;;;;;;;23.26;57.15;96805.39;1724868;81;21019;-82
2021/08/11 11:22:50;;;;;;;6.72;3.90;;;;;;;23.41;57.92;96804.73;1725493;82;21497;-82
2021/08/11 11:25:17;;;;;;;7.08;4.08;;;;;;;23.52;57.24;96802.45;1730907;81;21494;-83
2021/08/11 11:27:53;;;;;;;4.92;3.87;;;;;;;23.70;57.55;96796.77;1729328;81;20964;-82
2021/08/11 11:30:30;;;;;;;6.55;3.80;;;;;;;23.89;55.52;96805.92;1729389;80;20980;-82
2021/08/11 11:33:24;;;;;;;5.33;4.17;;;;;;;24.02;55.65;96790.08;1719163;83;21442;-82
2021/08/11 11:36:19;;;;;;;6.85;4.03;;;;;;;24.11;56.93;96801.02;1713860;83;20950;-84
2021/08/11 11:39:09;;;;;;;5.80;3.90;;;;;;;24.11;56.12;96797.84;1716327;82;21032;-84
2021/08/11 11:41:35;;;;;;;5.65;3.72;;;;;;;23.92;56.94;96804.62;1709679;82;21016;-83
2021/08/11 11:44:47;;;;;;;8.08;3.92;;;;;;;23.74;57.38;96804.48;1713686;82;21330;-84